Time;durP1;ratioP1;P1;durP2;ratioP2;P2;SDS_P1;SDS_P2;PMS_P1;PMS_P2;Temp;Humidity;BMP_temperature;BMP_pressure;BME280_temperature;BME280_humidity;BME280_pressure;Samples;Min_cycle;Max_cycle;Signal;HPM_P1;HPM_P2
2023/10/05 00:01:12;;;;;;;2.53;1.50;;;;;;;;;;5055917;28;20110;-59
2023/10/05 00:03:43;;;;;;;3.42;1.48;;;;;;;;;;5055574;28;20025;-59
2023/10/05 00:06:23;;;;;;;;;;;;;;;;;;5055950;28;20113;-59
2023/10/05 00:08:49;;;;;;;5.60;1.65;;;;;;;;;;5055776;28;20006;-58
2023/10/05 00:11:28;;;;;;;2.35;1.10;;;;;;;;;;5054860;28;20478;-59
2023/10/05 00:13:57;;;;;;;3.67;1.55;;;;;;;;;;5055088;28;20590;-58
2023/10/05 00:16:23;;;;;;;2.13;1.20;;;;;;;;;;5054685;28;20417;-58
2023/10/05 00:18:50;;;;;;;1.70;1.00;;;;;;;;;;5054713;28;20443;-58
2023/10/05 00:21:20;;;;;;;2.78;1.00;;;;;;;;;;5055221;28;20041;-58
2023/10/05 00:23:50;;;;;;;1.85;0.95;;;;;;;;;;5055172;28;20035;-58
2023/10/05 00:26:20;;;;;;;1.93;1.00;;;;;;;;;;5054849;28;20086;-58
2023/10/05 00:29:00;;;;;;;4.70;1.13;;;;;;;;;;5054513;28;20021;-58
2023/10/05 00:31:26;;;;;;;2.40;1.45;;;;;;;;;;5054986;28;20029;-58
2023/10/05 00:33:56;;;;;;;1.73;0.93;;;;;;;;;;5053897;28;20478;-59
2023/10/05 00:36:31;;;;;;;2.93;1.27;;;;;;;;;;5055028;28;20106;-58
2023/10/05 00:39:01;;;;;;;2.55;1.25;;;;;;;;;;5054622;28;20033;-58
2023/10/05 00:41:28;;;;;;;2.77;1.10;;;;;;;;;;5054888;28;20032;-58
2023/10/05 00:43:54;;;;;;;2.60;1.05;;;;;;;;;;5054101;28;20260;-58
2023/10/05 00:46:21;;;;;;;1.30;0.90;;;;;;;;;;5054616;28;20362;-58
2023/10/05 00:49:00;;;;;;;1.38;0.60;;;;;;;;;;5054133;28;20029;-58
2023/10/05 00:51:30;;;;;;;2.28;1.05;;;;;;;;;;5054506;28;20073;-58
2023/10/05 00:53:58;;;;;;;2.47;1.15;;;;;;;;;;5054606;28;20041;-58
2023/10/05 00:56:24;;;;;;;3.75;1.48;;;;;;;;;;5053929;28;20086;-58
2023/10/05 00:59:04;;;;;;;2.67;0.93;;;;;;;;;;5054483;28;20029;-59
2023/10/05 01:01:58;;;;;;;7.37;1.40;;;;;;;;;;5054578;28;20033;-59
2023/10/05 01:04:34;;;;;;;1.80;0.75;;;;;;;;;;5054613;28;20379;-59
2023/10/05 01:07:17;;;;;;;2.20;1.25;;;;;;;;;;5054693;28;20063;-58
2023/10/05 01:15:06;;;;;;;2.83;1.63;;;;;;;;;;5054019;28;20395;-58
2023/10/05 01:17:33;;;;;;;4.05;1.65;;;;;;;;;;5053678;28;20087;-58
2023/10/05 01:20:22;;;;;;;5.22;2.22;;;;;;;;;;5054229;28;20098;-58
2023/10/05 01:22:48;;;;;;;5.80;2.75;;;;;;;;;;5053649;28;20059;-58
2023/10/05 01:25:14;;;;;;;2.25;1.20;;;;;;;;;;5053272;28;20459;-58
2023/10/05 01:27:43;;;;;;;4.13;1.83;;;;;;;;;;5053230;28;20368;-58
2023/10/05 01:30:12;;;;;;;1.98;1.05;;;;;;;;;;5053994;28;20037;-58
2023/10/05 01:32:41;;;;;;;2.63;1.85;;;;;;;;;;5053499;28;20033;-58
2023/10/05 01:35:09;;;;;;;2.60;1.25;;;;;;;;;;5053639;28;20447;-58
2023/10/05 01:37:36;;;;;;;2.83;1.35;;;;;;;;;;5053991;28;20025;-58
2023/10/05 01:40:20;;;;;;;4.40;1.70;;;;;;;;;;5053908;28;20124;-58
2023/10/05 01:42:47;;;;;;;3.45;1.52;;;;;;;;;;5053902;28;20436;-59
2023/10/05 01:45:15;;;;;;;2.10;1.35;;;;;;;;;;5054339;28;20029;-58
2023/10/05 01:47:43;;;;;;;2.30;1.25;;;;;;;;;;5057981;28;20040;-58
2023/10/05 01:50:16;;;;;;;3.30;1.67;;;;;;;;;;5057926;28;20071;-58
2023/10/05 01:52:41;;;;;;;2.97;1.50;;;;;;;;;;5058000;28;20041;-58
2023/10/05 01:55:11;;;;;;;4.35;2.33;;;;;;;;;;5057143;28;20394;-58
2023/10/05 01:57:37;;;;;;;5.70;2.22;;;;;;;;;;5057218;28;20123;-58
2023/10/05 02:00:09;;;;;;;5.43;2.13;;;;;;;;;;5057954;28;20092;-58
2023/10/05 02:02:42;;;;;;;4.38;2.00;;;;;;;;;;5057540;28;20031;-58
2023/10/05 02:05:08;;;;;;;6.35;2.20;;;;;;;;;;5057176;28;20033;-58
2023/10/05 02:07:36;;;;;;;5.85;2.40;;;;;;;;;;5057495;28;20028;-58
2023/10/05 02:10:08;;;;;;;2.55;1.83;;;;;;;;;;5057606;28;20029;-58
2023/10/05 02:12:35;;;;;;;3.38;1.75;;;;;;;;;;5057761;28;20033;-58
2023/10/05 02:15:01;;;;;;;5.88;2.13;;;;;;;;;;5057858;28;20075;-58
2023/10/05 02:17:27;;;;;;;4.53;2.08;;;;;;;;;;5057526;28;20033;-58
2023/10/05 02:19:53;;;;;;;4.18;2.17;;;;;;;;;;5057510;28;20052;-58
2023/10/05 02:22:22;;;;;;;5.53;2.28;;;;;;;;;;5056924;28;20036;-58
2023/10/05 02:24:51;;;;;;;2.92;1.80;;;;;;;;;;5057410;28;20029;-58
2023/10/05 02:27:17;;;;;;;4.43;2.00;;;;;;;;;;5056846;28;20039;-58
2023/10/05 02:29:44;;;;;;;4.25;2.60;;;;;;;;;;5056590;28;20025;-58
2023/10/05 02:32:11;;;;;;;4.53;1.40;;;;;;;;;;5056570;28;20094;-58
2023/10/05 02:37:39;;;;;;;3.40;1.90;;;;;;;;;;5055394;28;20075;-58
2023/10/05 02:40:09;;;;;;;3.05;1.95;;;;;;;;;;5057144;28;20036;-58
2023/10/05 02:42:35;;;;;;;4.55;1.92;;;;;;;;;;5056563;28;20147;-58
2023/10/05 02:45:05;;;;;;;3.30;1.92;;;;;;;;;;5056493;28;20466;-58
2023/10/05 02:47:31;;;;;;;3.40;1.83;;;;;;;;;;5057315;28;20078;-58
2023/10/05 02:49:58;;;;;;;4.78;1.85;;;;;;;;;;5057474;28;20112;-58
2023/10/05 02:52:25;;;;;;;2.92;1.75;;;;;;;;;;5057396;28;20032;-58
2023/10/05 02:54:51;;;;;;;2.67;1.98;;;;;;;;;;5057169;28;20032;-58
2023/10/05 02:57:19;;;;;;;2.78;1.83;;;;;;;;;;5056056;28;20036;-58
2023/10/05 02:59:45;;;;;;;3.95;2.15;;;;;;;;;;5057022;28;20067;-58
2023/10/05 03:02:14;;;;;;;7.57;1.80;;;;;;;;;;5054853;28;20101;-58
2023/10/05 03:04:59;;;;;;;5.80;2.55;;;;;;;;;;5056883;28;20029;-58
2023/10/05 03:07:25;;;;;;;5.03;1.88;;;;;;;;;;5056917;28;20029;-58
2023/10/05 03:09:52;;;;;;;4.18;2.25;;;;;;;;;;5056562;28;20375;-59
2023/10/05 03:12:20;;;;;;;6.60;2.50;;;;;;;;;;5055991;28;20028;-58
2023/10/05 03:14:47;;;;;;;4.80;2.17;;;;;;;;;;5055978;28;20033;-58
2023/10/05 03:17:13;;;;;;;4.05;2.30;;;;;;;;;;5055874;28;20540;-58
2023/10/05 03:19:39;;;;;;;4.05;2.40;;;;;;;;;;5056068;28;20520;-58
2023/10/05 03:22:12;;;;;;;2.10;1.27;;;;;;;;;;5056629;28;20071;-58
2023/10/05 03:24:44;;;;;;;3.42;1.83;;;;;;;;;;5055800;28;20112;-59
2023/10/05 03:27:10;;;;;;;3.22;2.22;;;;;;;;;;5055713;28;20029;-58
2023/10/05 03:29:38;;;;;;;2.08;1.33;;;;;;;;;;5056288;28;20371;-58
2023/10/05 03:34:33;;;;;;;3.20;2.08;;;;;;;;;;5055516;28;20049;-58
2023/10/05 03:37:04;;;;;;;3.38;2.15;;;;;;;;;;5055907;28;20054;-58
2023/10/05 03:39:35;;;;;;;5.25;2.03;;;;;;;;;;5055682;28;20025;-58
2023/10/05 03:42:01;;;;;;;3.17;2.10;;;;;;;;;;5055422;28;20040;-58
2023/10/05 03:44:27;;;;;;;2.95;1.92;;;;;;;;;;5055287;28;20021;-58
2023/10/05 03:46:54;;;;;;;6.72;2.30;;;;;;;;;;5055787;28;20069;-58
2023/10/05 03:49:21;;;;;;;4.40;2.55;;;;;;;;;;5055776;28;20478;-58
2023/10/05 03:51:51;;;;;;;5.22;2.22;;;;;;;;;;5055686;28;20079;-58
2023/10/05 03:54:26;;;;;;;6.32;2.38;;;;;;;;;;5055157;28;20196;-58
2023/10/05 03:57:35;;;;;;;3.50;1.98;;;;;;;;;;5055335;28;20021;-58
2023/10/05 03:59:41;;;;;;;3.00;1.48;;;;;;;;;;5055156;28;20142;-58
2023/10/05 04:02:07;;;;;;;3.97;2.10;;;;;;;;;;5054837;28;20041;-58
2023/10/05 04:04:37;;;;;;;3.28;2.03;;;;;;;;;;5055169;28;20404;-58
2023/10/05 04:07:03;;;;;;;3.95;2.50;;;;;;;;;;5055240;28;20120;-58
2023/10/05 04:09:30;;;;;;;3.35;2.30;;;;;;;;;;5055385;28;20067;-58
2023/10/05 04:11:56;;;;;;;2.72;1.75;;;;;;;;;;5055237;28;20033;-58
2023/10/05 04:14:22;;;;;;;4.05;2.28;;;;;;;;;;5054577;28;20029;-58
2023/10/05 04:16:51;;;;;;;3.13;1.88;;;;;;;;;;5054569;28;20025;-58
2023/10/05 04:19:17;;;;;;;2.72;1.63;;;;;;;;;;5054982;28;20033;-58
2023/10/05 04:21:44;;;;;;;2.92;2.10;;;;;;;;;;5054601;28;20044;-58
2023/10/05 04:24:14;;;;;;;3.55;2.30;;;;;;;;;;5054705;28;20090;-58
2023/10/05 04:26:44;;;;;;;3.00;2.20;;;;;;;;;;5055223;28;20056;-58
2023/10/05 04:29:11;;;;;;;4.40;1.85;;;;;;;;;;5055388;28;20079;-58
2023/10/05 04:31:37;;;;;;;3.10;2.10;;;;;;;;;;5054755;28;20052;-58
2023/10/05 04:34:11;;;;;;;4.47;2.45;;;;;;;;;;5055050;28;20028;-58
2023/10/05 04:36:38;;;;;;;3.70;2.03;;;;;;;;;;5055293;28;20118;-58
2023/10/05 04:39:06;;;;;;;5.22;2.08;;;;;;;;;;5054395;28;20390;-58
2023/10/05 04:41:38;;;;;;;4.78;2.72;;;;;;;;;;5055237;28;20025;-58
2023/10/05 04:44:06;;;;;;;5.07;2.00;;;;;;;;;;5054413;28;20025;-58
2023/10/05 04:46:32;;;;;;;3.65;2.40;;;;;;;;;;5054294;28;20021;-58
2023/10/05 04:49:08;;;;;;;4.45;2.20;;;;;;;;;;5054235;28;20502;-58
2023/10/05 04:51:36;;;;;;;3.10;2.55;;;;;;;;;;5054626;28;20039;-58
2023/10/05 04:54:02;;;;;;;5.60;2.85;;;;;;;;;;5054614;28;20025;-58
2023/10/05 04:57:22;;;;;;;4.35;2.03;;;;;;;;;;5053703;28;20366;-58
2023/10/05 05:04:52;;;;;;;3.70;2.25;;;;;;;;;;5054076;28;20029;-58
2023/10/05 05:07:21;;;;;;;2.38;1.67;;;;;;;;;;5053886;28;20035;-58
2023/10/05 05:09:47;;;;;;;5.60;2.38;;;;;;;;;;5055009;28;20112;-58
2023/10/05 05:12:17;;;;;;;3.33;2.17;;;;;;;;;;5053814;28;20032;-58
2023/10/05 05:14:45;;;;;;;6.57;3.08;;;;;;;;;;5053874;28;20037;-58
2023/10/05 05:17:15;;;;;;;3.58;2.42;;;;;;;;;;5053539;28;20025;-58
2023/10/05 05:19:41;;;;;;;3.08;2.47;;;;;;;;;;5053825;28;20021;-58
2023/10/05 05:22:08;;;;;;;4.78;2.30;;;;;;;;;;5054348;28;20348;-58
2023/10/05 05:24:37;;;;;;;6.55;2.20;;;;;;;;;;5054142;28;20395;-58
2023/10/05 05:27:04;;;;;;;4.22;2.35;;;;;;;;;;5053652;28;20021;-58
2023/10/05 05:29:32;;;;;;;6.10;2.75;;;;;;;;;;5054086;28;20059;-58
2023/10/05 05:31:59;;;;;;;4.70;2.70;;;;;;;;;;5054283;28;20076;-58
2023/10/05 05:34:25;;;;;;;4.35;2.72;;;;;;;;;;5053353;28;20128;-58
2023/10/05 05:36:54;;;;;;;7.28;2.58;;;;;;;;;;5053862;28;20534;-58
2023/10/05 05:39:20;;;;;;;7.65;2.90;;;;;;;;;;5054558;28;20039;-58
2023/10/05 05:41:55;;;;;;;4.13;2.47;;;;;;;;;;5053525;28;20104;-58
2023/10/05 05:44:21;;;;;;;3.47;2.38;;;;;;;;;;5053671;28;20044;-58
2023/10/05 05:46:49;;;;;;;8.80;2.63;;;;;;;;;;5053277;28;20410;-58
2023/10/05 05:49:16;;;;;;;3.60;2.55;;;;;;;;;;5053931;28;20424;-58
2023/10/05 05:51:44;;;;;;;6.05;2.70;;;;;;;;;;5054005;28;20090;-58
2023/10/05 05:54:10;;;;;;;4.63;2.55;;;;;;;;;;5053407;28;20522;-58
2023/10/05 05:56:36;;;;;;;4.28;2.45;;;;;;;;;;5052985;28;20033;-58
2023/10/05 05:59:02;;;;;;;3.90;2.65;;;;;;;;;;5053514;28;20033;-58
2023/10/05 06:01:28;;;;;;;6.32;2.67;;;;;;;;;;5053426;28;20413;-58
2023/10/05 06:03:54;;;;;;;4.03;2.33;;;;;;;;;;5052894;28;20389;-58
2023/10/05 06:06:20;;;;;;;3.55;2.92;;;;;;;;;;5053571;28;20108;-58
2023/10/05 06:08:47;;;;;;;9.02;2.70;;;;;;;;;;5053669;28;20039;-58
2023/10/05 06:11:14;;;;;;;9.82;2.92;;;;;;;;;;5054063;28;20455;-58
2023/10/05 06:13:42;;;;;;;3.28;2.28;;;;;;;;;;5053072;28;20044;-58
2023/10/05 06:16:11;;;;;;;3.63;2.60;;;;;;;;;;5054146;28;20358;-58
2023/10/05 06:18:37;;;;;;;4.07;2.58;;;;;;;;;;5052931;28;20040;-58
2023/10/05 06:21:04;;;;;;;5.78;2.65;;;;;;;;;;5053574;28;20029;-58
2023/10/05 06:23:32;;;;;;;6.20;2.85;;;;;;;;;;5052888;28;20025;-58
2023/10/05 06:25:59;;;;;;;5.85;2.28;;;;;;;;;;5052983;28;20028;-58
2023/10/05 06:28:25;;;;;;;4.45;2.92;;;;;;;;;;5052970;28;20051;-58
2023/10/05 06:30:52;;;;;;;5.95;2.55;;;;;;;;;;5052934;28;20538;-58
2023/10/05 06:33:19;;;;;;;5.85;2.55;;;;;;;;;;5056136;28;20055;-58
2023/10/05 06:35:46;;;;;;;3.63;2.53;;;;;;;;;;5057154;28;20057;-58
2023/10/05 06:38:12;;;;;;;4.43;2.17;;;;;;;;;;5056748;28;20144;-58
2023/10/05 06:40:38;;;;;;;4.18;2.63;;;;;;;;;;5056862;28;20470;-58
2023/10/05 06:43:07;;;;;;;3.30;2.28;;;;;;;;;;5057089;28;20443;-58
2023/10/05 06:45:35;;;;;;;4.07;2.60;;;;;;;;;;5057046;28;20061;-58
2023/10/05 06:48:02;;;;;;;3.65;2.42;;;;;;;;;;5057002;28;20021;-58
2023/10/05 06:50:28;;;;;;;7.07;2.60;;;;;;;;;;5056459;28;20063;-58
2023/10/05 06:52:55;;;;;;;3.28;2.65;;;;;;;;;;5056357;28;20025;-58
2023/10/05 06:55:24;;;;;;;9.98;3.10;;;;;;;;;;5056880;28;20025;-58
2023/10/05 06:57:51;;;;;;;4.47;2.72;;;;;;;;;;5056217;28;20029;-58
2023/10/05 07:00:21;;;;;;;7.40;2.97;;;;;;;;;;5056811;28;20455;-58
2023/10/05 07:02:48;;;;;;;4.95;3.25;;;;;;;;;;5057052;28;20454;-58
2023/10/05 07:05:14;;;;;;;4.85;3.08;;;;;;;;;;5056235;28;20029;-58
2023/10/05 07:07:43;;;;;;;4.15;2.63;;;;;;;;;;5056074;28;20032;-58
2023/10/05 07:10:17;;;;;;;5.82;2.58;;;;;;;;;;5056640;28;20104;-58
2023/10/05 07:12:46;;;;;;;6.70;2.53;;;;;;;;;;5056346;28;20351;-58
2023/10/05 07:15:13;;;;;;;4.68;2.63;;;;;;;;;;5056502;28;20022;-58
2023/10/05 07:17:40;;;;;;;3.13;2.53;;;;;;;;;;5056172;28;20482;-58
2023/10/05 07:20:11;;;;;;;5.68;2.92;;;;;;;;;;5056189;28;20071;-58
2023/10/05 07:22:47;;;;;;;4.57;2.30;;;;;;;;;;5056072;28;20047;-58
2023/10/05 07:25:21;;;;;;;6.88;2.47;;;;;;;;;;5056610;28;20017;-58
2023/10/05 07:27:50;;;;;;;8.93;2.95;;;;;;;;;;5055740;28;20035;-58
2023/10/05 07:30:16;;;;;;;3.33;2.58;;;;;;;;;;5055881;28;20548;-58
2023/10/05 07:32:42;;;;;;;3.47;1.90;;;;;;;;;;5055015;28;20463;-58
2023/10/05 07:35:09;;;;;;;4.03;2.42;;;;;;;;;;5055364;28;20056;-58
2023/10/05 07:37:36;;;;;;;3.17;2.05;;;;;;;;;;5054290;28;20529;-58
2023/10/05 07:40:09;;;;;;;5.35;2.67;;;;;;;;;;5055135;28;20140;-58
2023/10/05 07:42:37;;;;;;;4.82;2.45;;;;;;;;;;5054773;28;20414;-58
2023/10/05 07:45:06;;;;;;;4.20;2.72;;;;;;;;;;5055290;28;20086;-58
2023/10/05 07:47:32;;;;;;;3.63;2.15;;;;;;;;;;5055435;28;20029;-58
2023/10/05 07:49:58;;;;;;;3.55;1.92;;;;;;;;;;5055646;28;20025;-58
2023/10/05 07:52:24;;;;;;;4.88;2.55;;;;;;;;;;5056029;28;20093;-58
2023/10/05 07:54:51;;;;;;;5.78;1.83;;;;;;;;;;5055298;28;20036;-58
2023/10/05 07:57:17;;;;;;;7.25;2.92;;;;;;;;;;5055462;28;20485;-58
2023/10/05 07:59:43;;;;;;;3.53;2.22;;;;;;;;;;5055500;28;20033;-58
2023/10/05 08:02:14;;;;;;;4.68;2.75;;;;;;;;;;5055062;28;20526;-58
2023/10/05 08:04:40;;;;;;;3.70;2.15;;;;;;;;;;5055377;28;20033;-58
2023/10/05 08:07:07;;;;;;;4.80;2.42;;;;;;;;;;5054711;28;20340;-58
2023/10/05 08:09:34;;;;;;;6.07;2.53;;;;;;;;;;5055166;28;20053;-59
2023/10/05 08:12:00;;;;;;;4.65;2.70;;;;;;;;;;5054811;28;20025;-58
2023/10/05 08:14:30;;;;;;;2.80;1.83;;;;;;;;;;5055043;28;20406;-58
2023/10/05 08:16:58;;;;;;;3.72;2.67;;;;;;;;;;5055052;28;20029;-58
2023/10/05 08:19:24;;;;;;;5.13;2.70;;;;;;;;;;5055625;28;20065;-58
2023/10/05 08:21:52;;;;;;;3.85;2.63;;;;;;;;;;5054606;28;20063;-58
2023/10/05 08:24:18;;;;;;;4.32;2.63;;;;;;;;;;5054649;28;20032;-58
2023/10/05 08:26:45;;;;;;;3.75;2.70;;;;;;;;;;5054703;28;20111;-58
2023/10/05 08:29:11;;;;;;;4.85;2.72;;;;;;;;;;5055150;28;20383;-58
2023/10/05 08:31:37;;;;;;;3.80;2.28;;;;;;;;;;5054536;28;20429;-58
2023/10/05 08:34:03;;;;;;;3.65;2.63;;;;;;;;;;5054839;28;20021;-58
2023/10/05 08:36:31;;;;;;;5.55;2.05;;;;;;;;;;5055328;28;20074;-58
2023/10/05 08:38:57;;;;;;;5.38;2.60;;;;;;;;;;5054311;28;20059;-58
2023/10/05 08:41:35;;;;;;;4.18;2.63;;;;;;;;;;5055316;28;20108;-59
2023/10/05 08:44:16;;;;;;;6.57;2.53;;;;;;;;;;5054440;28;20052;-58
2023/10/05 08:46:43;;;;;;;5.50;2.28;;;;;;;;;;5054223;28;20029;-58
2023/10/05 08:49:10;;;;;;;4.10;2.42;;;;;;;;;;5054721;28;20371;-58
2023/10/05 08:51:36;;;;;;;3.05;1.83;;;;;;;;;;5054657;28;20029;-59
2023/10/05 08:54:09;;;;;;;3.92;2.50;;;;;;;;;;5054409;28;20025;-58
2023/10/05 08:56:35;;;;;;;3.95;2.17;;;;;;;;;;5053907;28;20032;-58
2023/10/05 08:59:07;;;;;;;3.90;2.47;;;;;;;;;;5054077;28;20470;-58
2023/10/05 09:01:33;;;;;;;3.25;2.22;;;;;;;;;;5054509;28;20119;-58
2023/10/05 09:04:23;;;;;;;4.25;2.30;;;;;;;;;;5053919;28;20439;-59
2023/10/05 09:06:59;;;;;;;4.00;2.70;;;;;;;;;;5053928;28;20032;-59
2023/10/05 09:09:37;;;;;;;4.47;2.38;;;;;;;;;;5054263;28;20040;-59
2023/10/05 09:12:32;;;;;;;5.85;3.53;;;;;;;;;;5053766;28;20041;-58
2023/10/05 09:18:38;;;;;;;5.13;2.97;;;;;;;;;;5054117;28;20060;-59
2023/10/05 09:20:48;;;;;;;;;;;;;;;;;;5053549;28;20043;-59
2023/10/05 09:23:20;;;;;;;6.22;2.55;;;;;;;;;;5053742;28;20295;-58
2023/10/05 09:25:46;;;;;;;6.53;2.33;;;;;;;;;;5054319;28;20069;-59
2023/10/05 09:28:13;;;;;;;4.10;2.70;;;;;;;;;;5054286;28;20099;-58
2023/10/05 09:30:49;;;;;;;7.07;3.83;;;;;;;;;;5054003;28;20360;-59
2023/10/05 09:33:18;;;;;;;3.22;2.33;;;;;;;;;;5053412;28;20029;-59
2023/10/05 09:35:46;;;;;;;3.75;2.03;;;;;;;;;;5053647;28;20088;-58
2023/10/05 09:38:14;;;;;;;4.07;2.72;;;;;;;;;;5053894;28;20376;-59
2023/10/05 09:40:41;;;;;;;9.60;2.80;;;;;;;;;;5053974;28;20036;-59
2023/10/05 09:43:10;;;;;;;3.65;2.55;;;;;;;;;;5053060;28;20483;-59
2023/10/05 09:45:36;;;;;;;8.23;3.05;;;;;;;;;;5053815;28;20104;-59
2023/10/05 09:48:04;;;;;;;7.53;2.45;;;;;;;;;;5052975;28;20509;-59
2023/10/05 09:50:31;;;;;;;5.60;2.67;;;;;;;;;;5053684;28;20404;-59
2023/10/05 09:52:59;;;;;;;6.65;2.45;;;;;;;;;;5053616;28;20036;-59
2023/10/05 09:55:25;;;;;;;3.83;2.45;;;;;;;;;;5053761;28;20108;-58
2023/10/05 09:57:52;;;;;;;8.60;3.17;;;;;;;;;;5053725;28;20138;-58
2023/10/05 10:03:03;;;;;;;5.40;2.15;;;;;;;;;;5053623;28;20053;-59
2023/10/05 10:05:38;;;;;;;3.88;2.22;;;;;;;;;;5053408;28;20025;-59
2023/10/05 10:08:13;;;;;;;4.78;2.70;;;;;;;;;;5057221;28;20029;-59
2023/10/05 10:10:41;;;;;;;9.05;3.22;;;;;;;;;;5057893;28;20068;-58
2023/10/05 10:13:11;;;;;;;4.43;2.50;;;;;;;;;;5057627;28;20075;-59
2023/10/05 10:15:46;;;;;;;7.75;3.17;;;;;;;;;;5058066;28;20359;-59
2023/10/05 10:18:15;;;;;;;5.75;2.35;;;;;;;;;;5057122;28;20037;-59
2023/10/05 10:20:48;;;;;;;6.45;2.78;;;;;;;;;;5057680;28;20033;-59
2023/10/05 10:23:18;;;;;;;4.30;2.75;;;;;;;;;;5057088;28;20036;-58
2023/10/05 10:25:45;;;;;;;5.88;2.80;;;;;;;;;;5057313;28;20402;-59
2023/10/05 10:28:14;;;;;;;5.35;2.50;;;;;;;;;;5056858;28;20055;-59
2023/10/05 10:30:43;;;;;;;10.23;3.13;;;;;;;;;;5057647;28;20040;-59
2023/10/05 10:33:24;;;;;;;5.30;3.33;;;;;;;;;;5057361;28;20252;-58
2023/10/05 10:35:50;;;;;;;5.57;2.20;;;;;;;;;;5057184;28;20049;-59
2023/10/05 10:38:17;;;;;;;5.03;3.13;;;;;;;;;;5057302;28;20462;-59
2023/10/05 10:40:53;;;;;;;5.18;3.38;;;;;;;;;;5057536;28;20025;-59
2023/10/05 10:43:20;;;;;;;3.95;2.50;;;;;;;;;;5056604;28;20027;-59
2023/10/05 10:45:49;;;;;;;8.18;3.38;;;;;;;;;;5056257;28;20033;-59
2023/10/05 10:48:22;;;;;;;5.72;2.70;;;;;;;;;;5056568;28;20020;-59
2023/10/05 10:50:52;;;;;;;10.25;3.55;;;;;;;;;;5056956;28;20333;-59
2023/10/05 10:53:19;;;;;;;8.07;3.25;;;;;;;;;;5057044;28;20104;-59
2023/10/05 10:55:46;;;;;;;5.22;2.55;;;;;;;;;;5056493;28;20060;-59
2023/10/05 10:58:13;;;;;;;4.53;2.63;;;;;;;;;;5056300;28;20123;-59
2023/10/05 11:01:13;;;;;;;4.72;2.70;;;;;;;;;;5056362;28;20064;-59
2023/10/05 11:03:40;;;;;;;5.72;2.95;;;;;;;;;;5056804;28;20343;-59
2023/10/05 11:06:09;;;;;;;4.80;2.75;;;;;;;;;;5056132;28;20137;-59
2023/10/05 11:08:40;;;;;;;5.55;2.80;;;;;;;;;;5056115;28;20542;-59
2023/10/05 11:11:09;;;;;;;6.75;2.85;;;;;;;;;;5055861;28;20029;-59
2023/10/05 11:13:43;;;;;;;5.82;3.28;;;;;;;;;;5056568;28;20029;-59
2023/10/05 11:16:09;;;;;;;4.43;2.53;;;;;;;;;;5056451;28;20043;-59
2023/10/05 11:18:39;;;;;;;3.90;2.75;;;;;;;;;;5055268;28;20375;-59
2023/10/05 11:21:13;;;;;;;6.90;3.38;;;;;;;;;;5056867;28;20462;-59
2023/10/05 11:23:45;;;;;;;5.30;3.30;;;;;;;;;;5055929;28;20032;-59
2023/10/05 11:26:17;;;;;;;5.07;3.05;;;;;;;;;;5055861;28;20470;-59
2023/10/05 11:28:43;;;;;;;7.35;3.17;;;;;;;;;;5056219;28;20414;-59
2023/10/05 11:31:11;;;;;;;4.55;2.35;;;;;;;;;;5056150;28;20037;-59
2023/10/05 11:33:41;;;;;;;8.75;3.15;;;;;;;;;;5056440;28;20029;-59
2023/10/05 11:36:21;;;;;;;4.15;2.17;;;;;;;;;;5055031;28;20399;-59
2023/10/05 11:38:57;;;;;;;7.70;3.25;;;;;;;;;;5056027;28;20399;-59
2023/10/05 11:41:23;;;;;;;6.82;2.47;;;;;;;;;;5056109;28;20031;-59
2023/10/05 11:43:53;;;;;;;4.53;2.90;;;;;;;;;;5055506;28;20459;-59
2023/10/05 11:46:26;;;;;;;7.77;2.97;;;;;;;;;;5055928;28;20390;-59
2023/10/05 11:48:55;;;;;;;4.43;2.40;;;;;;;;;;5055832;28;20427;-59
2023/10/05 11:51:41;;;;;;;8.15;2.70;;;;;;;;;;5055951;28;20033;-59
2023/10/05 11:54:07;;;;;;;7.15;3.00;;;;;;;;;;5055808;28;20040;-59
2023/10/05 11:56:33;;;;;;;5.10;2.50;;;;;;;;;;5055787;28;20079;-59
2023/10/05 11:59:00;;;;;;;5.10;2.30;;;;;;;;;;5055164;28;20100;-59
2023/10/05 12:01:26;;;;;;;3.35;1.45;;;;;;;;;;5056083;28;20344;-59
2023/10/05 12:03:54;;;;;;;4.70;2.03;;;;;;;;;;5055646;28;20351;-59
2023/10/05 12:06:25;;;;;;;6.13;2.67;;;;;;;;;;5055095;28;20029;-59
2023/10/05 12:08:53;;;;;;;4.53;2.33;;;;;;;;;;5055357;28;20032;-59
2023/10/05 12:11:23;;;;;;;5.18;2.75;;;;;;;;;;5055469;28;20060;-59
2023/10/05 12:13:49;;;;;;;3.00;1.60;;;;;;;;;;5054903;28;20046;-59
2023/10/05 12:16:15;;;;;;;3.72;2.00;;;;;;;;;;5054906;28;20640;-59
2023/10/05 12:18:42;;;;;;;4.57;1.88;;;;;;;;;;5055339;28;20019;-59
2023/10/05 12:21:09;;;;;;;4.20;2.00;;;;;;;;;;5054506;28;20600;-59
2023/10/05 12:23:35;;;;;;;4.38;2.40;;;;;;;;;;5054722;28;20140;-59
2023/10/05 12:26:04;;;;;;;4.40;2.30;;;;;;;;;;5055057;28;20061;-59
2023/10/05 12:28:30;;;;;;;3.30;1.92;;;;;;;;;;5054314;28;20024;-59
2023/10/05 12:30:56;;;;;;;5.57;2.17;;;;;;;;;;5053617;28;20116;-59
2023/10/05 12:33:22;;;;;;;3.72;1.60;;;;;;;;;;5055334;28;20055;-59
2023/10/05 12:35:52;;;;;;;3.35;1.83;;;;;;;;;;5054139;28;20041;-59
2023/10/05 12:38:18;;;;;;;4.93;2.03;;;;;;;;;;5054985;28;20021;-59
2023/10/05 12:40:47;;;;;;;5.38;2.47;;;;;;;;;;5054644;28;20029;-59
2023/10/05 12:43:16;;;;;;;3.47;2.05;;;;;;;;;;5054624;28;20029;-59
2023/10/05 12:45:44;;;;;;;3.97;2.10;;;;;;;;;;5054316;28;20107;-59
2023/10/05 12:48:11;;;;;;;4.25;2.50;;;;;;;;;;5054223;28;20477;-59
2023/10/05 12:50:39;;;;;;;3.55;2.17;;;;;;;;;;5054704;28;20502;-59
2023/10/05 12:53:05;;;;;;;4.20;2.25;;;;;;;;;;5054849;28;20025;-59
2023/10/05 12:55:32;;;;;;;5.72;2.40;;;;;;;;;;5054192;28;20025;-59
2023/10/05 12:57:58;;;;;;;3.97;1.92;;;;;;;;;;5054503;28;20029;-59
2023/10/05 13:00:41;;;;;;;3.65;1.98;;;;;;;;;;5054701;28;20086;-59
2023/10/05 13:03:10;;;;;;;4.88;2.45;;;;;;;;;;5054263;28;20422;-59
2023/10/05 13:05:43;;;;;;;5.80;2.38;;;;;;;;;;5053927;28;20083;-59
2023/10/05 13:08:11;;;;;;;5.05;2.40;;;;;;;;;;5054486;28;20410;-59
2023/10/05 13:10:37;;;;;;;8.82;3.72;;;;;;;;;;5053859;28;20083;-59
2023/10/05 13:13:10;;;;;;;5.32;2.13;;;;;;;;;;5054455;28;20386;-59
2023/10/05 13:15:37;;;;;;;4.38;2.53;;;;;;;;;;5054407;28;20387;-59
2023/10/05 13:18:19;;;;;;;7.80;2.45;;;;;;;;;;5054185;28;20041;-59
2023/10/05 13:20:47;;;;;;;5.22;2.30;;;;;;;;;;5054231;28;20047;-59
2023/10/05 13:23:14;;;;;;;5.90;2.70;;;;;;;;;;5054225;28;20112;-59
2023/10/05 13:25:43;;;;;;;4.00;2.38;;;;;;;;;;5054501;28;20029;-59
2023/10/05 13:28:11;;;;;;;8.07;2.30;;;;;;;;;;5053666;28;20025;-59
2023/10/05 13:30:41;;;;;;;5.25;2.78;;;;;;;;;;5053882;28;20076;-59
2023/10/05 13:33:15;;;;;;;3.75;2.10;;;;;;;;;;5053589;28;20071;-59
2023/10/05 13:35:41;;;;;;;4.72;2.33;;;;;;;;;;5053728;28;20057;-59
2023/10/05 13:38:12;;;;;;;4.03;2.28;;;;;;;;;;5053610;28;20029;-59
2023/10/05 13:40:38;;;;;;;;;;;;;;;;;;5053608;28;20025;-59
2023/10/05 13:43:04;;;;;;;4.38;2.13;;;;;;;;;;5053228;28;20054;-59
2023/10/05 13:45:33;;;;;;;3.45;1.90;;;;;;;;;;5053515;28;20032;-59
2023/10/05 13:48:00;;;;;;;3.78;2.03;;;;;;;;;;5053284;28;20378;-59
2023/10/05 13:50:27;;;;;;;3.92;2.38;;;;;;;;;;5053269;28;20033;-59
2023/10/05 13:52:53;;;;;;;7.80;2.50;;;;;;;;;;5053742;28;20033;-59
2023/10/05 13:55:23;;;;;;;3.63;1.75;;;;;;;;;;5053820;28;20043;-59
2023/10/05 13:57:49;;;;;;;5.30;2.40;;;;;;;;;;5053202;28;20344;-59
2023/10/05 14:00:19;;;;;;;5.63;2.83;;;;;;;;;;5053829;28;20244;-59
2023/10/05 14:02:45;;;;;;;3.53;1.63;;;;;;;;;;5053782;28;20029;-59
2023/10/05 14:05:11;;;;;;;4.60;1.90;;;;;;;;;;5054060;28;20313;-59
2023/10/05 14:07:36;;;;;;;7.28;2.25;;;;;;;;;;5053300;28;20033;-59
2023/10/05 14:10:06;;;;;;;9.60;1.85;;;;;;;;;;5053603;28;20459;-59
2023/10/05 14:12:32;;;;;;;3.83;2.83;;;;;;;;;;5053321;28;20044;-59
2023/10/05 14:15:00;;;;;;;4.95;3.03;;;;;;;;;;5053701;28;20336;-59
2023/10/05 14:17:26;;;;;;;4.25;2.28;;;;;;;;;;5053594;28;20033;-59
2023/10/05 14:19:54;;;;;;;5.20;2.78;;;;;;;;;;5053744;28;20517;-59
2023/10/05 14:22:22;;;;;;;4.45;2.05;;;;;;;;;;5053318;28;20383;-59
2023/10/05 14:24:48;;;;;;;5.50;2.28;;;;;;;;;;5053062;28;20029;-59
2023/10/05 14:27:16;;;;;;;4.78;2.20;;;;;;;;;;5052925;28;20056;-59
2023/10/05 14:29:44;;;;;;;6.22;2.28;;;;;;;;;;5053366;28;20025;-59
2023/10/05 14:32:11;;;;;;;3.72;2.10;;;;;;;;;;5053422;28;20039;-59
2023/10/05 14:34:41;;;;;;;3.63;1.85;;;;;;;;;;5052940;28;20053;-59
2023/10/05 14:37:07;;;;;;;4.88;2.50;;;;;;;;;;5053574;28;20025;-59
2023/10/05 14:39:37;;;;;;;5.75;2.70;;;;;;;;;;5053381;28;20110;-59
2023/10/05 14:42:04;;;;;;;7.20;2.30;;;;;;;;;;5052916;28;20360;-59
2023/10/05 14:44:35;;;;;;;6.07;3.00;;;;;;;;;;5052563;28;20021;-59
2023/10/05 14:47:03;;;;;;;6.30;2.53;;;;;;;;;;5053145;28;20021;-59
2023/10/05 14:49:31;;;;;;;5.18;2.25;;;;;;;;;;5053437;28;20028;-59
2023/10/05 14:51:58;;;;;;;5.13;2.47;;;;;;;;;;5052631;28;20258;-59
2023/10/05 14:54:24;;;;;;;3.13;1.80;;;;;;;;;;5055575;28;20025;-59
2023/10/05 14:56:50;;;;;;;3.03;2.15;;;;;;;;;;5056322;28;20027;-59
2023/10/05 14:59:16;;;;;;;8.38;2.97;;;;;;;;;;5057180;28;20062;-59
2023/10/05 15:01:42;;;;;;;6.30;3.10;;;;;;;;;;5056368;28;20511;-59
2023/10/05 15:04:08;;;;;;;5.93;2.40;;;;;;;;;;5057078;28;20443;-59
2023/10/05 15:06:34;;;;;;;6.18;3.05;;;;;;;;;;5056285;28;20037;-59
2023/10/05 15:09:00;;;;;;;4.90;2.13;;;;;;;;;;5056754;28;20032;-59
2023/10/05 15:11:26;;;;;;;5.82;2.60;;;;;;;;;;5056583;28;20482;-59
2023/10/05 15:13:54;;;;;;;4.68;2.17;;;;;;;;;;5056060;28;20475;-59
2023/10/05 15:16:19;;;;;;;4.60;2.35;;;;;;;;;;5056541;28;20025;-59